Time;durP1;ratioP1;P1;durP2;ratioP2;P2;SDS_P1;SDS_P2;PMS_P1;PMS_P2;Temp;Humidity;BMP_temperature;BMP_pressure;BME280_temperature;BME280_humidity;BME280_pressure;Samples;Min_cycle;Max_cycle;Signal;HPM_P1;HPM_P2
2023/10/05 00:01:20;;;;;;;0.10;0.10;;;12.80;99.90;;;;;;5086936;28;20828;-85
2023/10/05 00:03:44;;;;;;;0.20;0.20;;;12.80;99.90;;;;;;5083015;28;20980;-86
2023/10/05 00:06:14;;;;;;;0.10;0.10;;;12.90;99.90;;;;;;5072518;28;20548;-85
2023/10/05 00:08:47;;;;;;;0.10;0.10;;;12.90;99.90;;;;;;5082408;28;20427;-86
2023/10/05 00:11:23;;;;;;;0.10;0.10;;;12.90;99.90;;;;;;5078947;28;20454;-86
2023/10/05 00:13:52;;;;;;;0.10;0.10;;;13.00;99.90;;;;;;5089142;28;20499;-85
2023/10/05 00:16:20;;;;;;;0.20;0.20;;;12.90;99.90;;;;;;5096267;28;20445;-89
2023/10/05 00:18:47;;;;;;;0.10;0.10;;;12.90;99.90;;;;;;5075552;28;20926;-85
2023/10/05 00:21:15;;;;;;;0.10;0.10;;;12.90;99.90;;;;;;5074009;28;20508;-85
2023/10/05 00:23:41;;;;;;;0.13;0.13;;;12.90;99.90;;;;;;5090401;28;20439;-86
2023/10/05 00:26:07;;;;;;;0.20;0.20;;;12.90;99.90;;;;;;5070317;28;21014;-86
2023/10/05 00:28:35;;;;;;;0.20;0.20;;;12.90;99.90;;;;;;5079022;28;20447;-86
2023/10/05 00:31:01;;;;;;;0.10;0.10;;;13.00;99.90;;;;;;5087561;28;20908;-85
2023/10/05 00:33:27;;;;;;;0.10;0.10;;;12.90;99.90;;;;;;5085554;28;20460;-87
2023/10/05 00:35:52;;;;;;;0.10;0.10;;;12.90;99.90;;;;;;5088629;28;20921;-86
2023/10/05 00:38:19;;;;;;;0.20;0.20;;;12.90;99.90;;;;;;5080766;28;20185;-86
2023/10/05 00:41:01;;;;;;;0.20;0.20;;;12.90;99.90;;;;;;5071180;28;20189;-87
2023/10/05 00:43:27;;;;;;;0.17;0.17;;;12.90;99.90;;;;;;5086570;28;20803;-86
2023/10/05 00:45:56;;;;;;;0.10;0.10;;;12.90;99.90;;;;;;5089417;28;20481;-89
2023/10/05 00:50:59;;;;;;;0.20;0.20;;;12.80;99.90;;;;;;5094090;28;20435;-86
2023/10/05 00:53:27;;;;;;;0.10;0.10;;;12.80;99.90;;;;;;5090641;28;20434;-87
2023/10/05 00:56:08;;;;;;;0.20;0.20;;;12.80;99.90;;;;;;5098142;28;20483;-84
2023/10/05 00:58:47;;;;;;;0.10;0.10;;;12.80;99.90;;;;;;5074137;28;20450;-86
2023/10/05 01:01:16;;;;;;;0.20;0.20;;;12.80;99.90;;;;;;5090836;28;20561;-86
2023/10/05 01:03:59;;;;;;;0.10;0.10;;;12.90;99.90;;;;;;5071495;28;20430;-85
2023/10/05 01:06:31;;;;;;;0.10;0.10;;;12.90;99.90;;;;;;5069230;28;20472;-85
2023/10/05 01:09:00;;;;;;;0.20;0.20;;;12.90;99.90;;;;;;5075809;28;20443;-86
2023/10/05 01:11:40;;;;;;;0.20;0.20;;;12.80;99.90;;;;;;5074538;28;20484;-86
2023/10/05 01:14:06;;;;;;;0.10;0.10;;;12.90;99.90;;;;;;5090155;28;20498;-86
2023/10/05 01:16:32;;;;;;;0.10;0.10;;;12.90;99.90;;;;;;5071658;28;20439;-86
2023/10/05 01:19:00;;;;;;;0.10;0.10;;;12.90;99.90;;;;;;5095339;28;20530;-85
2023/10/05 01:21:26;;;;;;;0.10;0.10;;;12.90;99.90;;;;;;5097763;28;20545;-88
2023/10/05 01:23:52;;;;;;;0.10;0.10;;;13.00;99.90;;;;;;5072628;28;20969;-89
2023/10/05 01:26:18;;;;;;;0.10;0.10;;;13.00;99.90;;;;;;5072967;28;20538;-89
2023/10/05 01:28:44;;;;;;;0.10;0.10;;;13.00;99.90;;;;;;5099132;28;20200;-87
2023/10/05 01:31:20;;;;;;;0.20;0.20;;;13.00;99.90;;;;;;5068525;28;20472;-86
2023/10/05 01:33:47;;;;;;;0.10;0.10;;;13.10;99.90;;;;;;5084552;28;20293;-87
2023/10/05 01:36:16;;;;;;;0.10;0.10;;;13.10;99.90;;;;;;5090515;28;20537;-87
2023/10/05 01:38:44;;;;;;;0.10;0.10;;;13.10;99.90;;;;;;5099078;28;20423;-86
2023/10/05 01:41:10;;;;;;;0.20;0.20;;;13.10;99.90;;;;;;5071095;28;20408;-87
2023/10/05 01:43:42;;;;;;;0.10;0.10;;;13.10;99.90;;;;;;5073339;28;20527;-87
2023/10/05 01:46:10;;;;;;;0.10;0.10;;;13.10;99.90;;;;;;5080984;28;20491;-87
2023/10/05 01:48:37;;;;;;;0.20;0.20;;;13.10;99.90;;;;;;5103378;27;20450;-85
2023/10/05 01:51:10;;;;;;;0.10;0.10;;;13.10;99.90;;;;;;5094969;28;20509;-87
2023/10/05 01:53:36;;;;;;;0.10;0.10;;;13.20;99.90;;;;;;5097237;28;20438;-85
2023/10/05 01:56:03;;;;;;;0.10;0.10;;;13.10;99.90;;;;;;5075836;28;20443;-86
2023/10/05 01:58:31;;;;;;;0.20;0.20;;;13.10;99.90;;;;;;5074199;28;20953;-86
2023/10/05 02:00:56;;;;;;;0.10;0.10;;;13.00;99.90;;;;;;5072654;28;21029;-87
2023/10/05 02:03:25;;;;;;;0.10;0.10;;;13.10;99.90;;;;;;5100410;28;20439;-86
2023/10/05 02:05:56;;;;;;;0.20;0.20;;;13.00;99.90;;;;;;5087281;28;20287;-86
2023/10/05 02:08:21;;;;;;;0.20;0.20;;;13.00;99.90;;;;;;5076037;28;20432;-85
2023/10/05 02:10:48;;;;;;;0.17;0.17;;;13.00;99.90;;;;;;5076591;28;20478;-85
2023/10/05 02:13:13;;;;;;;0.10;0.10;;;13.10;99.90;;;;;;5085910;28;20238;-86
2023/10/05 02:15:45;;;;;;;0.20;0.20;;;13.00;99.90;;;;;;5084810;28;20432;-86
2023/10/05 02:18:26;;;;;;;0.10;0.10;;;13.10;99.90;;;;;;5080985;28;20238;-85
2023/10/05 02:21:09;;;;;;;0.10;0.10;;;13.00;99.90;;;;;;5088662;28;20437;-87
2023/10/05 02:23:40;;;;;;;0.10;0.10;;;13.00;99.90;;;;;;5098756;28;20821;-91
2023/10/05 02:26:23;;;;;;;0.10;0.10;;;13.10;99.90;;;;;;5092069;28;20486;-84
2023/10/05 02:28:49;;;;;;;0.10;0.10;;;13.10;99.90;;;;;;5101148;28;20431;-84
2023/10/05 02:31:15;;;;;;;0.10;0.10;;;13.10;99.90;;;;;;5084556;28;20548;-84
2023/10/05 02:33:43;;;;;;;0.20;0.20;;;13.10;99.90;;;;;;5084983;28;20518;-87
2023/10/05 02:36:11;;;;;;;0.10;0.10;;;13.20;99.90;;;;;;5088423;28;20188;-88
2023/10/05 02:38:48;;;;;;;0.10;0.10;;;13.10;99.90;;;;;;5086486;28;20481;-86
2023/10/05 02:41:24;;;;;;;0.10;0.10;;;13.20;99.90;;;;;;5088545;28;20808;-87
2023/10/05 02:43:53;;;;;;;0.10;0.10;;;13.20;99.90;;;;;;5073773;28;20431;-89
2023/10/05 02:46:20;;;;;;;0.10;0.10;;;13.20;99.90;;;;;;5094343;28;20450;-87
2023/10/05 02:48:47;;;;;;;0.10;0.10;;;13.20;99.90;;;;;;5108118;28;20476;-88
2023/10/05 02:51:14;;;;;;;0.10;0.10;;;13.30;99.90;;;;;;5070612;28;20573;-88
2023/10/05 02:54:05;;;;;;;0.10;0.10;;;13.30;99.90;;;;;;5091718;28;21131;-88
2023/10/05 02:56:29;;;;;;;0.10;0.10;;;13.30;99.90;;;;;;5087939;28;20459;-91
2023/10/05 02:59:00;;;;;;;0.10;0.10;;;13.40;99.90;;;;;;5079209;28;20443;-87
2023/10/05 03:01:26;;;;;;;0.10;0.10;;;13.40;99.90;;;;;;5093770;28;20535;-85
2023/10/05 03:03:52;;;;;;;0.20;0.20;;;13.40;99.90;;;;;;5071686;28;20443;-86
2023/10/05 03:06:18;;;;;;;0.10;0.10;;;13.40;99.90;;;;;;5097845;28;21169;-86
2023/10/05 03:08:54;;;;;;;0.13;0.13;;;13.40;99.90;;;;;;5092160;28;20174;-85
2023/10/05 03:11:19;;;;;;;0.10;0.10;;;13.40;99.90;;;;;;5084361;28;20519;-84
2023/10/05 03:13:46;;;;;;;0.10;0.10;;;13.30;99.90;;;;;;5075651;28;20890;-86
2023/10/05 03:16:12;;;;;;;0.10;0.10;;;13.30;99.90;;;;;;5088398;28;20540;-84
2023/10/05 03:18:42;;;;;;;0.10;0.10;;;13.40;99.90;;;;;;5072718;28;20427;-86
2023/10/05 03:21:12;;;;;;;0.10;0.10;;;13.30;99.90;;;;;;5091352;28;20439;-84
2023/10/05 03:23:38;;;;;;;0.20;0.20;;;13.20;99.90;;;;;;5091421;28;20427;-89
2023/10/05 03:26:06;;;;;;;0.10;0.10;;;13.20;99.90;;;;;;5091181;28;20580;-85
2023/10/05 03:28:34;;;;;;;0.10;0.10;;;13.20;99.90;;;;;;5091919;28;20417;-85
2023/10/05 03:31:06;;;;;;;0.10;0.10;;;13.20;99.90;;;;;;5090605;28;20435;-85
2023/10/05 03:33:33;;;;;;;0.10;0.10;;;13.20;99.90;;;;;;5091727;28;20422;-83
2023/10/05 03:36:05;;;;;;;0.10;0.10;;;13.10;99.90;;;;;;5085043;28;20471;-82
2023/10/05 03:38:32;;;;;;;0.10;0.10;;;13.10;99.90;;;;;;5088301;28;20463;-83
2023/10/05 03:41:03;;;;;;;0.10;0.10;;;13.10;99.90;;;;;;5087997;28;20476;-83
2023/10/05 03:43:31;;;;;;;0.10;0.10;;;13.00;99.90;;;;;;5110354;28;20438;-82
2023/10/05 03:45:57;;;;;;;0.10;0.10;;;13.10;99.90;;;;;;5095535;28;20482;-83
2023/10/05 03:48:22;;;;;;;0.10;0.10;;;13.00;99.90;;;;;;5069038;28;20520;-82
2023/10/05 03:50:48;;;;;;;0.10;0.10;;;13.10;99.90;;;;;;5064274;28;20823;-83
2023/10/05 03:53:15;;;;;;;0.20;0.20;;;13.10;99.90;;;;;;5097961;28;20199;-82
2023/10/05 03:55:41;;;;;;;0.10;0.10;;;13.00;99.90;;;;;;5091955;28;20209;-82
2023/10/05 03:58:07;;;;;;;0.10;0.10;;;13.00;99.90;;;;;;5069206;28;20958;-83
2023/10/05 04:00:35;;;;;;;0.10;0.10;;;13.00;99.90;;;;;;5087181;28;20219;-83
2023/10/05 04:03:02;;;;;;;0.10;0.10;;;13.00;99.90;;;;;;5104064;28;20445;-82
2023/10/05 04:05:28;;;;;;;0.10;0.10;;;13.00;99.90;;;;;;5089213;28;20477;-82
2023/10/05 04:08:00;;;;;;;0.20;0.20;;;13.00;99.90;;;;;;5092757;28;20788;-83
2023/10/05 04:10:45;;;;;;;0.10;0.10;;;12.90;99.90;;;;;;5092554;28;20185;-83
2023/10/05 04:13:12;;;;;;;0.20;0.20;;;12.90;99.90;;;;;;5065983;28;20436;-85
2023/10/05 04:15:41;;;;;;;0.10;0.10;;;12.90;99.90;;;;;;5086535;28;20440;-83
2023/10/05 04:18:16;;;;;;;0.10;0.10;;;12.90;99.90;;;;;;5099648;28;20471;-83
2023/10/05 04:20:44;;;;;;;0.10;0.10;;;12.90;99.90;;;;;;5096706;28;20465;-83
2023/10/05 04:23:15;;;;;;;0.10;0.10;;;12.90;99.90;;;;;;5083503;28;20445;-83
2023/10/05 04:25:44;;;;;;;0.10;0.10;;;12.90;99.90;;;;;;5090716;28;20491;-83
2023/10/05 04:28:11;;;;;;;0.10;0.10;;;12.80;99.90;;;;;;5057383;28;20858;-83
2023/10/05 04:30:37;;;;;;;0.10;0.10;;;12.90;99.90;;;;;;5073983;28;20435;-84
2023/10/05 04:33:03;;;;;;;0.10;0.10;;;12.80;99.90;;;;;;5093736;28;20435;-84
2023/10/05 04:35:32;;;;;;;0.10;0.10;;;12.80;99.90;;;;;;5082973;28;20434;-85
2023/10/05 04:38:00;;;;;;;0.10;0.10;;;12.80;99.90;;;;;;5090742;28;20656;-83
2023/10/05 04:40:26;;;;;;;0.20;0.20;;;12.80;99.90;;;;;;5088973;28;20439;-84
2023/10/05 04:42:52;;;;;;;0.20;0.20;;;12.70;99.90;;;;;;5091049;28;20496;-84
2023/10/05 04:45:20;;;;;;;0.10;0.10;;;12.70;99.90;;;;;;5083221;28;20485;-83
2023/10/05 04:47:48;;;;;;;0.10;0.10;;;12.70;99.90;;;;;;5079046;28;20235;-82
2023/10/05 04:50:15;;;;;;;0.10;0.10;;;12.70;99.90;;;;;;5085067;28;20442;-85
2023/10/05 04:52:41;;;;;;;0.10;0.10;;;12.70;99.90;;;;;;5096872;28;20931;-84
2023/10/05 04:55:23;;;;;;;0.10;0.10;;;12.60;99.90;;;;;;5062650;28;20439;-83
2023/10/05 04:57:55;;;;;;;0.20;0.20;;;12.60;99.90;;;;;;5077708;28;20894;-83
2023/10/05 05:03:16;;;;;;;0.13;0.13;;;12.50;99.90;;;;;;5090071;28;20431;-81
2023/10/05 05:08:27;;;;;;;0.20;0.20;;;12.50;99.90;;;;;;5086077;28;20918;-82
2023/10/05 05:10:53;;;;;;;0.20;0.20;;;12.40;99.90;;;;;;5082520;28;20527;-82
2023/10/05 05:13:20;;;;;;;0.20;0.20;;;12.40;99.90;;;;;;5076483;28;20190;-83
2023/10/05 05:15:46;;;;;;;0.20;0.20;;;12.50;99.90;;;;;;5059146;28;20424;-85
2023/10/05 05:18:14;;;;;;;0.20;0.20;;;12.50;99.90;;;;;;5083695;28;20418;-83
2023/10/05 05:20:41;;;;;;;0.20;0.20;;;12.40;99.90;;;;;;5077007;28;20198;-84
2023/10/05 05:23:07;;;;;;;0.10;0.10;;;12.40;99.90;;;;;;5075337;28;20952;-83
2023/10/05 05:25:33;;;;;;;0.10;0.10;;;12.40;99.90;;;;;;5093678;28;20582;-83
2023/10/05 05:28:01;;;;;;;0.10;0.10;;;12.40;99.90;;;;;;5067685;28;20221;-84
2023/10/05 05:30:29;;;;;;;0.10;0.10;;;12.40;99.90;;;;;;5093448;28;20191;-82
2023/10/05 05:32:54;;;;;;;0.20;0.20;;;12.40;99.90;;;;;;5081670;28;20428;-83
2023/10/05 05:35:20;;;;;;;0.10;0.10;;;12.40;99.90;;;;;;5068718;28;20443;-83
2023/10/05 05:37:46;;;;;;;0.10;0.10;;;12.40;99.90;;;;;;5084830;28;20173;-83
2023/10/05 05:40:12;;;;;;;0.10;0.10;;;12.40;99.90;;;;;;5072101;28;20189;-82
2023/10/05 05:42:44;;;;;;;0.20;0.20;;;12.40;99.90;;;;;;5064956;28;20985;-83
2023/10/05 05:45:16;;;;;;;0.10;0.10;;;12.40;99.90;;;;;;5060923;28;20479;-83
2023/10/05 05:47:45;;;;;;;0.10;0.10;;;12.40;99.90;;;;;;5073377;28;20960;-83
2023/10/05 05:50:17;;;;;;;0.10;0.10;;;12.40;99.90;;;;;;5071272;28;20443;-83
2023/10/05 05:52:45;;;;;;;0.10;0.10;;;12.40;99.90;;;;;;5083193;28;20435;-82
2023/10/05 05:55:14;;;;;;;0.10;0.10;;;12.40;99.90;;;;;;5081678;28;20443;-82
2023/10/05 05:57:42;;;;;;;0.10;0.10;;;12.40;99.90;;;;;;5063844;28;20567;-82
2023/10/05 06:00:11;;;;;;;0.20;0.20;;;12.40;99.90;;;;;;5084270;28;20597;-82
2023/10/05 06:02:40;;;;;;;0.20;0.20;;;12.40;99.90;;;;;;5078376;28;20468;-83
2023/10/05 06:05:08;;;;;;;0.10;0.10;;;12.40;99.90;;;;;;5077754;28;20513;-85
2023/10/05 06:07:36;;;;;;;0.10;0.10;;;12.40;99.90;;;;;;5078971;28;20427;-84
2023/10/05 06:10:02;;;;;;;0.10;0.10;;;12.40;99.90;;;;;;5078449;28;20439;-82
2023/10/05 06:12:27;;;;;;;0.10;0.10;;;12.40;99.90;;;;;;5076818;28;20431;-83
2023/10/05 06:14:53;;;;;;;0.10;0.10;;;12.40;99.90;;;;;;5084289;28;20458;-85
2023/10/05 06:17:19;;;;;;;0.20;0.20;;;12.40;99.90;;;;;;5082184;28;20191;-83
2023/10/05 06:19:47;;;;;;;0.20;0.20;;;12.40;99.90;;;;;;5064263;28;20182;-83
2023/10/05 06:22:13;;;;;;;0.20;0.20;;;12.30;99.90;;;;;;5074068;28;21339;-83
2023/10/05 06:24:42;;;;;;;0.10;0.10;;;12.40;99.90;;;;;;5084811;28;20507;-83
2023/10/05 06:27:08;;;;;;;0.10;0.10;;;12.40;99.90;;;;;;5082146;28;20657;-83
2023/10/05 06:29:34;;;;;;;0.10;0.10;;;12.50;99.90;;;;;;5071084;28;20481;-83
2023/10/05 06:32:00;;;;;;;0.10;0.10;;;12.50;99.90;;;;;;5072714;28;20209;-84
2023/10/05 06:34:26;;;;;;;0.20;0.20;;;12.60;99.90;;;;;;5086893;28;20484;-84
2023/10/05 06:36:52;;;;;;;0.10;0.10;;;12.60;99.90;;;;;;5069124;28;20442;-84
2023/10/05 06:39:18;;;;;;;0.10;0.10;;;12.60;99.90;;;;;;5091608;28;20177;-84
2023/10/05 06:41:45;;;;;;;0.10;0.10;;;12.70;99.90;;;;;;5091835;28;20446;-85
2023/10/05 06:44:11;;;;;;;0.10;0.10;;;12.80;99.90;;;;;;5081843;28;20183;-84
2023/10/05 06:46:42;;;;;;;0.10;0.10;;;12.70;99.90;;;;;;5084154;28;20443;-83
2023/10/05 06:49:09;;;;;;;0.10;0.10;;;12.80;99.90;;;;;;5089633;28;20181;-84
2023/10/05 06:51:35;;;;;;;0.10;0.10;;;12.80;99.90;;;;;;5091198;28;20454;-84
2023/10/05 06:54:00;;;;;;;0.10;0.10;;;12.80;99.90;;;;;;5084659;28;20446;-83
2023/10/05 06:56:26;;;;;;;0.10;0.10;;;12.90;99.90;;;;;;5080310;28;21011;-84
2023/10/05 06:58:52;;;;;;;0.10;0.10;;;12.80;99.90;;;;;;5081491;28;20186;-84
2023/10/05 07:01:21;;;;;;;0.10;0.10;;;12.90;99.90;;;;;;5089709;28;20511;-84
2023/10/05 07:03:52;;;;;;;0.10;0.10;;;13.00;99.90;;;;;;5074694;28;20440;-83
2023/10/05 07:06:27;;;;;;;0.10;0.10;;;13.00;99.90;;;;;;5082346;28;20487;-83
2023/10/05 07:08:53;;;;;;;0.10;0.10;;;13.10;99.90;;;;;;5079982;28;20853;-84
2023/10/05 07:11:19;;;;;;;0.10;0.10;;;13.20;99.90;;;;;;5059595;28;20437;-84
2023/10/05 07:13:46;;;;;;;0.10;0.10;;;13.30;99.90;;;;;;5082229;28;20201;-83
2023/10/05 07:16:15;;;;;;;0.10;0.10;;;13.30;99.90;;;;;;5064493;28;21017;-83
2023/10/05 07:18:41;;;;;;;0.10;0.10;;;13.40;99.90;;;;;;5076154;28;20486;-84
2023/10/05 07:21:11;;;;;;;0.10;0.10;;;13.40;99.90;;;;;;5076374;28;20791;-84
2023/10/05 07:23:37;;;;;;;0.10;0.10;;;13.50;99.90;;;;;;5067428;28;20441;-85
2023/10/05 07:26:06;;;;;;;0.10;0.10;;;13.50;99.90;;;;;;5087019;28;21004;-85
2023/10/05 07:28:34;;;;;;;0.10;0.10;;;13.50;99.90;;;;;;5084081;28;21039;-86
2023/10/05 07:31:02;;;;;;;0.10;0.10;;;13.70;99.90;;;;;;5085719;28;20938;-86
2023/10/05 07:33:33;;;;;;;0.10;0.10;;;13.90;99.90;;;;;;5067427;28;20427;-87
2023/10/05 07:35:59;;;;;;;0.10;0.10;;;13.90;99.90;;;;;;5080545;28;21015;-85
2023/10/05 07:38:26;;;;;;;0.10;0.10;;;13.80;99.90;;;;;;5075770;28;20474;-86
2023/10/05 07:40:53;;;;;;;0.10;0.10;;;13.90;99.90;;;;;;5086142;28;20173;-86
2023/10/05 07:43:19;;;;;;;0.10;0.10;;;13.90;99.90;;;;;;5089048;28;20434;-86
2023/10/05 07:45:45;;;;;;;0.10;0.10;;;13.90;99.90;;;;;;5081773;28;20481;-85
2023/10/05 07:48:11;;;;;;;0.10;0.10;;;14.00;99.90;;;;;;5090692;28;20183;-86
2023/10/05 07:50:37;;;;;;;0.10;0.10;;;14.20;99.90;;;;;;5090346;28;20492;-85
2023/10/05 07:53:03;;;;;;;0.10;0.10;;;14.20;99.90;;;;;;5083078;28;20442;-84
2023/10/05 07:55:29;;;;;;;0.10;0.10;;;14.30;99.90;;;;;;5061844;28;20423;-86
2023/10/05 07:57:55;;;;;;;0.10;0.10;;;14.30;99.90;;;;;;5083170;28;20180;-86
2023/10/05 08:00:26;;;;;;;0.10;0.10;;;14.50;99.90;;;;;;5058001;27;1544998;-87
2023/10/05 08:02:52;;;;;;;0.10;0.10;;;14.50;99.90;;;;;;5106338;28;20204;-86
2023/10/05 08:05:17;;;;;;;0.13;0.13;;;14.50;99.90;;;;;;5104230;28;20238;-86
2023/10/05 08:07:44;;;;;;;0.10;0.10;;;14.50;99.90;;;;;;5103361;28;20241;-86
2023/10/05 08:10:18;;;;;;;0.10;0.10;;;14.70;99.90;;;;;;5107101;28;20196;-85
2023/10/05 08:12:44;;;;;;;0.10;0.10;;;14.80;99.90;;;;;;5104600;28;20428;-84
2023/10/05 08:15:18;;;;;;;0.10;0.10;;;14.80;99.90;;;;;;5099998;28;20437;-85
2023/10/05 08:17:44;;;;;;;0.10;0.10;;;14.90;99.90;;;;;;5103574;28;20434;-85
2023/10/05 08:20:10;;;;;;;0.10;0.10;;;15.10;99.90;;;;;;5095274;28;20511;-85
2023/10/05 08:22:36;;;;;;;0.10;0.10;;;15.20;99.90;;;;;;5094196;28;20442;-85
2023/10/05 08:25:10;;;;;;;0.10;0.10;;;14.70;99.90;;;;;;5107270;28;20428;-85
2023/10/05 08:27:37;;;;;;;0.10;0.10;;;15.00;99.90;;;;;;5106532;28;20414;-85
2023/10/05 08:30:04;;;;;;;0.10;0.10;;;15.30;99.90;;;;;;5082426;28;20427;-86
2023/10/05 08:32:32;;;;;;;0.10;0.10;;;15.30;99.90;;;;;;5068323;28;20510;-84
2023/10/05 08:34:59;;;;;;;0.10;0.10;;;15.20;99.90;;;;;;5098237;28;20963;-85
2023/10/05 08:37:27;;;;;;;0.20;0.20;;;15.50;99.90;;;;;;5103449;28;20426;-85
2023/10/05 08:39:53;;;;;;;0.10;0.10;;;15.50;99.90;;;;;;5086230;28;20213;-84
2023/10/05 08:42:19;;;;;;;0.10;0.10;;;15.60;99.90;;;;;;5086508;28;20800;-84
2023/10/05 08:44:45;;;;;;;0.10;0.10;;;15.70;99.90;;;;;;5071565;28;20269;-85
2023/10/05 08:47:13;;;;;;;0.10;0.10;;;15.60;99.90;;;;;;5068728;28;20488;-85
2023/10/05 08:49:43;;;;;;;0.10;0.10;;;15.90;99.90;;;;;;5096874;28;20814;-84
2023/10/05 08:52:14;;;;;;;0.10;0.10;;;16.10;99.90;;;;;;5102616;28;20449;-84
2023/10/05 08:54:40;;;;;;;0.10;0.10;;;16.30;99.90;;;;;;5103157;28;20869;-84
2023/10/05 08:57:11;;;;;;;0.10;0.10;;;16.30;99.90;;;;;;5082623;28;20418;-85
2023/10/05 08:59:39;;;;;;;0.10;0.10;;;16.30;99.90;;;;;;5106333;28;20852;-85
2023/10/05 09:02:07;;;;;;;0.10;0.10;;;16.40;99.90;;;;;;5090816;28;20422;-84
2023/10/05 09:04:47;;;;;;;0.10;0.10;;;16.60;99.90;;;;;;5098522;28;20445;-84
2023/10/05 09:07:43;;;;;;;0.10;0.10;;;16.60;99.90;;;;;;5102685;28;20478;-84
2023/10/05 09:10:24;;;;;;;0.10;0.10;;;16.80;99.90;;;;;;5081844;28;20456;-84
2023/10/05 09:12:58;;;;;;;0.10;0.10;;;16.90;99.90;;;;;;5073117;28;20445;-84
2023/10/05 09:17:56;;;;;;;0.10;0.10;;;16.70;99.90;;;;;;5082899;28;20432;-85
2023/10/05 09:20:30;;;;;;;0.10;0.10;;;16.80;99.90;;;;;;5060039;28;20536;-85
2023/10/05 09:22:57;;;;;;;0.10;0.10;;;17.00;99.90;;;;;;5075845;28;20938;-84
2023/10/05 09:25:27;;;;;;;0.10;0.10;;;16.90;99.90;;;;;;5081214;28;20966;-86
2023/10/05 09:27:56;;;;;;;0.10;0.10;;;17.00;99.90;;;;;;5074888;28;20452;-86
2023/10/05 09:30:22;;;;;;;0.10;0.10;;;17.10;99.90;;;;;;5077531;28;20433;-86
2023/10/05 09:32:48;;;;;;;0.10;0.10;;;17.60;99.90;;;;;;5087893;28;20480;-85
2023/10/05 09:35:27;;;;;;;0.10;0.10;;;17.70;99.90;;;;;;5065805;28;20515;-85
2023/10/05 09:37:56;;;;;;;0.10;0.10;;;18.00;99.90;;;;;;5080747;28;20424;-85
2023/10/05 09:40:22;;;;;;;0.10;0.10;;;17.80;99.90;;;;;;5088349;28;20490;-85
2023/10/05 09:42:53;;;;;;;0.10;0.10;;;17.40;99.90;;;;;;5064922;28;20517;-86
2023/10/05 09:45:22;;;;;;;0.10;0.10;;;17.30;99.90;;;;;;5087049;28;20787;-86
2023/10/05 09:47:51;;;;;;;0.10;0.10;;;17.80;99.90;;;;;;5077634;28;20923;-86
2023/10/05 09:50:21;;;;;;;0.10;0.00;;;17.80;99.90;;;;;;5076407;28;20432;-85
2023/10/05 09:52:48;;;;;;;0.10;0.10;;;18.00;99.90;;;;;;5085061;28;20527;-85
2023/10/05 09:55:19;;;;;;;0.10;0.00;;;17.50;99.90;;;;;;5085099;28;21101;-86
2023/10/05 09:57:51;;;;;;;0.10;0.10;;;18.20;99.90;;;;;;5077230;28;20435;-85
2023/10/05 10:03:04;;;;;;;0.10;0.00;;;19.10;99.90;;;;;;5079698;28;20439;-85
2023/10/05 10:06:07;;;;;;;0.10;0.00;;;19.00;99.90;;;;;;5088789;28;20471;-84
2023/10/05 10:08:34;;;;;;;0.10;0.10;;;18.40;99.90;;;;;;5075588;28;20439;-84
2023/10/05 10:11:06;;;;;;;0.10;0.10;;;18.00;99.90;;;;;;5084766;28;20951;-83
2023/10/05 10:13:39;;;;;;;0.10;0.10;;;19.00;99.90;;;;;;5064248;28;20462;-83
2023/10/05 10:16:26;;;;;;;0.10;0.10;;;19.20;99.90;;;;;;5081176;28;21012;-87
2023/10/05 10:18:53;;;;;;;0.10;0.00;;;19.30;99.90;;;;;;5079763;28;20972;-88
2023/10/05 10:21:32;;;;;;;0.10;0.00;;;20.00;99.90;;;;;;5087481;28;20431;-89
2023/10/05 10:24:06;;;;;;;0.10;0.00;;;19.90;99.90;;;;;;5070750;28;20464;-87
2023/10/05 10:26:42;;;;;;;0.10;0.00;;;20.30;99.90;;;;;;5083059;28;20448;-87
2023/10/05 10:29:15;;;;;;;0.10;0.00;;;20.70;99.90;;;;;;5084373;28;20480;-88
2023/10/05 10:31:47;;;;;;;0.10;0.00;;;20.50;99.90;;;;;;5080447;28;20490;-88
2023/10/05 10:34:28;;;;;;;0.10;0.00;;;19.40;99.90;;;;;;5079456;28;20450;-87
2023/10/05 10:36:56;;;;;;;0.10;0.10;;;18.10;99.90;;;;;;5069325;28;20451;-87
2023/10/05 10:39:23;;;;;;;0.10;0.10;;;17.70;99.90;;;;;;5071275;28;20586;-87
2023/10/05 10:42:12;;;;;;;0.10;0.10;;;17.10;99.90;;;;;;5089144;28;20429;-86
2023/10/05 10:47:19;;;;;;;0.10;0.10;;;16.20;99.90;;;;;;5078317;28;22085;-87
2023/10/05 10:50:14;;;;;;;0.10;0.10;;;16.30;99.90;;;;;;5058792;28;20794;-86
2023/10/05 10:52:40;;;;;;;0.10;0.10;;;16.60;99.90;;;;;;5082522;28;21152;-85
2023/10/05 10:55:14;;;;;;;0.10;0.10;;;17.60;99.90;;;;;;5076334;28;20444;-85
2023/10/05 10:57:39;;;;;;;0.10;0.10;;;19.00;99.90;;;;;;5077926;28;20609;-86
2023/10/05 11:02:54;;;;;;;0.10;0.00;;;20.90;99.90;;;;;;5058213;28;20199;-87
2023/10/05 11:05:21;;;;;;;0.10;0.00;;;21.50;99.90;;;;;;5072806;28;20499;-87
2023/10/05 11:07:49;;;;;;;0.10;0.00;;;22.30;99.90;;;;;;5070420;28;21077;-88
2023/10/05 11:10:18;;;;;;;0.10;0.00;;;22.20;99.90;;;;;;5084930;28;20438;-87
2023/10/05 11:12:53;;;;;;;0.10;0.00;;;21.40;99.90;;;;;;5082687;28;20431;-86
2023/10/05 11:15:28;;;;;;;0.10;0.00;;;21.10;99.90;;;;;;5086062;28;20941;-87
2023/10/05 11:17:58;;;;;;;0.10;0.00;;;20.80;99.90;;;;;;5063412;28;20456;-87
2023/10/05 11:20:25;;;;;;;0.10;0.00;;;20.10;99.90;;;;;;5081877;28;20483;-87
2023/10/05 11:22:55;;;;;;;0.10;0.00;;;19.90;99.90;;;;;;5071177;28;21320;-86
2023/10/05 11:25:31;;;;;;;0.10;0.00;;;19.50;99.90;;;;;;5076108;28;20447;-86
2023/10/05 11:27:59;;;;;;;0.10;0.00;;;20.50;99.90;;;;;;5076592;28;20428;-86
2023/10/05 11:30:48;;;;;;;0.10;0.00;;;20.00;99.90;;;;;;5080914;28;20499;-86
2023/10/05 11:33:17;;;;;;;0.10;0.00;;;19.00;99.90;;;;;;5055107;28;20439;-86
2023/10/05 11:35:48;;;;;;;0.10;0.00;;;20.00;99.90;;;;;;5074865;28;20446;-87
2023/10/05 11:38:15;;;;;;;0.10;0.00;;;20.50;99.90;;;;;;5077908;28;20934;-87
2023/10/05 11:40:49;;;;;;;0.10;0.00;;;20.80;99.90;;;;;;5085475;28;20838;-87
2023/10/05 11:43:16;;;;;;;0.10;0.00;;;20.70;99.90;;;;;;5064699;28;20839;-87
2023/10/05 11:45:58;;;;;;;0.10;0.00;;;20.40;99.90;;;;;;5072397;28;20443;-89
2023/10/05 11:48:40;;;;;;;0.10;0.00;;;20.70;99.90;;;;;;5070643;28;20443;-87
2023/10/05 11:51:09;;;;;;;0.10;0.00;;;21.30;99.90;;;;;;5065347;28;20435;-89
2023/10/05 11:53:39;;;;;;;0.10;0.00;;;22.10;99.90;;;;;;5081477;28;20483;-86
2023/10/05 11:56:05;;;;;;;0.10;0.00;;;21.90;99.90;;;;;;5078891;28;20504;-87
2023/10/05 11:58:37;;;;;;;0.10;0.00;;;21.60;99.90;;;;;;5085075;28;20458;-84
2023/10/05 12:01:03;;;;;;;0.10;0.00;;;22.60;99.90;;;;;;5052770;28;20182;-86
2023/10/05 12:03:30;;;;;;;0.10;0.00;;;22.20;99.90;;;;;;5069814;28;20440;-85
2023/10/05 12:06:00;;;;;;;0.10;0.00;;;23.50;99.90;;;;;;5065479;28;20943;-86
2023/10/05 12:08:28;;;;;;;0.10;0.00;;;23.20;99.90;;;;;;5086370;28;22009;-86
2023/10/05 12:10:57;;;;;;;0.10;0.00;;;23.20;99.90;;;;;;5071110;28;20805;-87
2023/10/05 12:13:23;;;;;;;0.10;0.00;;;23.10;99.90;;;;;;5066829;28;20438;-87
2023/10/05 12:15:51;;;;;;;0.10;0.00;;;23.30;99.90;;;;;;5082676;28;20510;-84
2023/10/05 12:18:17;;;;;;;0.10;0.00;;;23.70;99.90;;;;;;5083297;28;20592;-85
2023/10/05 12:20:42;;;;;;;0.10;0.00;;;24.30;99.90;;;;;;5076565;28;20439;-84
2023/10/05 12:23:14;;;;;;;0.10;0.00;;;24.40;99.90;;;;;;5088012;28;21002;-84
2023/10/05 12:25:45;;;;;;;0.10;0.00;;;25.00;99.90;;;;;;5086130;28;20188;-83
2023/10/05 12:28:12;;;;;;;0.10;0.00;;;25.00;99.90;;;;;;5085584;28;20776;-84
2023/10/05 12:30:48;;;;;;;0.10;0.00;;;24.40;99.90;;;;;;5084605;28;20439;-83
2023/10/05 12:33:15;;;;;;;0.10;0.00;;;24.30;99.90;;;;;;5054088;28;20442;-84
2023/10/05 12:35:42;;;;;;;0.10;0.00;;;24.60;99.90;;;;;;5055332;28;20526;-84
2023/10/05 12:38:09;;;;;;;0.10;0.00;;;24.40;99.90;;;;;;5088135;28;20435;-86
2023/10/05 12:40:40;;;;;;;0.10;0.00;;;23.60;99.90;;;;;;5071282;28;20469;-86
2023/10/05 12:43:06;;;;;;;0.10;0.00;;;24.00;99.90;;;;;;5085253;28;20434;-83
2023/10/05 12:45:32;;;;;;;0.10;0.00;;;24.70;99.90;;;;;;5078944;28;20466;-84
2023/10/05 12:47:58;;;;;;;0.10;0.00;;;23.80;99.90;;;;;;5068587;28;20480;-85
2023/10/05 12:50:26;;;;;;;0.10;0.00;;;24.00;99.90;;;;;;5081880;28;20200;-83
2023/10/05 12:52:53;;;;;;;0.10;0.00;;;24.40;99.90;;;;;;5077313;28;20432;-83
2023/10/05 12:55:23;;;;;;;0.10;0.00;;;24.80;99.90;;;;;;5077332;28;20536;-84
2023/10/05 12:57:53;;;;;;;0.10;0.07;;;25.10;99.90;;;;;;5087692;28;20518;-85
2023/10/05 13:00:20;;;;;;;0.10;0.00;;;25.40;99.90;;;;;;5068500;28;20491;-85
2023/10/05 13:02:55;;;;;;;0.10;0.00;;;26.10;99.90;;;;;;5061235;28;20443;-85
2023/10/05 13:05:23;;;;;;;0.10;0.00;;;25.20;99.90;;;;;;5080665;28;20455;-85
2023/10/05 13:07:50;;;;;;;0.10;0.00;;;25.10;99.90;;;;;;5083066;28;20511;-83
2023/10/05 13:10:26;;;;;;;0.10;0.00;;;25.90;99.90;;;;;;5082717;28;20935;-84
2023/10/05 13:12:55;;;;;;;0.10;0.00;;;25.90;99.90;;;;;;5078929;28;20434;-85
2023/10/05 13:15:24;;;;;;;0.10;0.00;;;25.10;99.90;;;;;;5067409;28;20431;-84
2023/10/05 13:17:50;;;;;;;0.10;0.00;;;25.50;99.90;;;;;;5087486;28;20492;-84